Time;durP1;ratioP1;P1;durP2;ratioP2;P2;SDS_P1;SDS_P2;PMS_P1;PMS_P2;Temp;Humidity;BMP_temperature;BMP_pressure;BME280_temperature;BME280_humidity;BME280_pressure;Samples;Min_cycle;Max_cycle;Signal;HPM_P1;HPM_P2
2024/02/03 00:01:48;;;;;;;4.40;3.00;;;;;;;3.74;100.00;99441.72;5084423;28;20685;-82
2024/02/03 00:04:15;;;;;;;3.63;2.90;;;;;;;3.75;100.00;99444.31;5084060;28;20211;-80
2024/02/03 00:06:41;;;;;;;3.83;2.57;;;;;;;3.78;100.00;99439.00;5084525;28;20846;-80
2024/02/03 00:09:08;;;;;;;3.97;2.80;;;;;;;3.77;100.00;99436.41;5083933;28;20248;-81
2024/02/03 00:11:39;;;;;;;4.80;3.27;;;;;;;3.72;100.00;99439.13;5085026;28;20235;-81
2024/02/03 00:14:05;;;;;;;3.73;2.63;;;;;;;3.74;100.00;99432.09;5083151;28;20211;-80
2024/02/03 00:16:32;;;;;;;3.23;2.43;;;;;;;3.77;100.00;99428.56;5083292;28;20580;-81
2024/02/03 00:18:59;;;;;;;3.97;2.27;;;;;;;3.74;100.00;99419.03;5082577;28;20209;-80
2024/02/03 00:21:26;;;;;;;2.93;2.20;;;;;;;3.75;100.00;99418.16;5083744;28;20720;-82
2024/02/03 00:23:52;;;;;;;4.37;2.60;;;;;;;3.81;100.00;99411.91;5083104;28;20580;-80
2024/02/03 00:26:19;;;;;;;3.10;2.47;;;;;;;3.83;100.00;99413.59;5084077;28;20287;-81
2024/02/03 00:28:49;;;;;;;4.80;2.77;;;;;;;3.92;100.00;99416.00;5082965;28;20205;-82
2024/02/03 00:31:16;;;;;;;3.40;2.43;;;;;;;3.89;100.00;99421.31;5082823;28;20228;-82
2024/02/03 00:33:42;;;;;;;2.77;2.43;;;;;;;3.89;100.00;99416.09;5083036;28;20214;-80
2024/02/03 00:36:09;;;;;;;4.87;2.67;;;;;;;3.75;100.00;99412.94;5082405;28;20321;-80
2024/02/03 00:38:36;;;;;;;4.50;3.10;;;;;;;3.45;100.00;99417.94;5082080;28;20599;-80
2024/02/03 00:41:02;;;;;;;6.13;3.40;;;;;;;3.26;100.00;99421.81;5082603;28;20671;-80
2024/02/03 00:43:29;;;;;;;5.17;3.27;;;;;;;3.15;100.00;99434.22;5082883;28;20296;-80
2024/02/03 00:45:57;;;;;;;4.87;3.17;;;;;;;3.05;100.00;99435.28;5083872;28;20232;-81
2024/02/03 00:48:23;;;;;;;3.83;3.40;;;;;;;2.98;100.00;99437.16;5083746;28;20238;-80
2024/02/03 00:50:50;;;;;;;5.27;3.17;;;;;;;3.02;100.00;99438.81;5083651;28;20212;-80
2024/02/03 00:53:17;;;;;;;4.83;3.47;;;;;;;3.08;100.00;99438.72;5084483;28;20272;-80
2024/02/03 00:55:43;;;;;;;3.90;2.87;;;;;;;3.06;100.00;99447.47;5083737;28;20311;-80
2024/02/03 00:58:10;;;;;;;4.73;3.50;;;;;;;3.09;100.00;99440.44;5083382;28;20625;-82
2024/02/03 01:00:36;;;;;;;6.00;3.17;;;;;;;3.07;100.00;99442.19;5084023;28;20244;-81
2024/02/03 01:03:05;;;;;;;4.73;3.27;;;;;;;3.06;100.00;99437.84;5084681;28;20315;-82
2024/02/03 01:05:32;;;;;;;4.27;3.30;;;;;;;3.05;100.00;99438.75;5082905;28;20209;-80
2024/02/03 01:07:58;;;;;;;5.37;3.50;;;;;;;3.07;100.00;99436.97;5081347;28;20299;-80
2024/02/03 01:10:26;;;;;;;4.43;3.20;;;;;;;3.01;100.00;99437.06;5082789;28;20284;-82
2024/02/03 01:12:53;;;;;;;4.07;3.27;;;;;;;3.12;100.00;99444.72;5082431;28;20626;-81
2024/02/03 01:15:20;;;;;;;3.20;2.90;;;;;;;3.09;100.00;99440.44;5082948;28;20494;-81
2024/02/03 01:17:47;;;;;;;4.23;3.17;;;;;;;3.04;100.00;99442.25;5081437;28;20621;-81
2024/02/03 01:20:15;;;;;;;3.97;3.30;;;;;;;3.03;100.00;99434.44;5082001;28;20213;-81
2024/02/03 01:22:43;;;;;;;5.03;3.30;;;;;;;3.03;100.00;99447.50;5082221;28;20228;-80
2024/02/03 01:25:09;;;;;;;3.40;2.97;;;;;;;3.09;100.00;99448.25;5082388;28;20300;-80
2024/02/03 01:27:36;;;;;;;6.87;3.70;;;;;;;3.09;100.00;99448.25;5082368;28;20206;-80
2024/02/03 01:30:03;;;;;;;4.20;3.30;;;;;;;3.06;100.00;99445.69;5082035;28;20310;-81
2024/02/03 01:32:29;;;;;;;4.00;2.73;;;;;;;3.15;100.00;99449.88;5082438;28;20544;-81
2024/02/03 01:34:56;;;;;;;4.53;3.03;;;;;;;3.11;100.00;99454.31;5084172;28;20658;-81
2024/02/03 01:37:25;;;;;;;4.43;3.30;;;;;;;3.21;100.00;99444.53;5087034;28;20287;-81
2024/02/03 01:39:54;;;;;;;4.90;3.10;;;;;;;3.29;100.00;99438.28;5087104;28;20285;-81
2024/02/03 01:42:20;;;;;;;3.93;3.00;;;;;;;3.22;100.00;99436.69;5086409;28;20293;-81
2024/02/03 01:44:47;;;;;;;5.33;2.77;;;;;;;3.19;100.00;99426.28;5085312;28;20269;-81
2024/02/03 01:47:14;;;;;;;4.00;3.03;;;;;;;3.11;100.00;99428.19;5084374;28;20563;-81
2024/02/03 01:49:40;;;;;;;4.00;3.30;;;;;;;3.03;100.00;99437.06;5083689;28;20227;-81
2024/02/03 01:52:07;;;;;;;4.10;3.20;;;;;;;3.01;100.00;99431.00;5083803;28;20260;-81
2024/02/03 01:54:36;;;;;;;6.10;3.37;;;;;;;2.96;100.00;99425.88;5083484;28;20651;-81
2024/02/03 01:57:05;;;;;;;3.83;3.20;;;;;;;2.94;100.00;99439.84;5084052;28;20276;-81
2024/02/03 01:59:33;;;;;;;3.87;2.77;;;;;;;3.00;100.00;99435.34;5083499;28;20365;-81
2024/02/03 02:02:00;;;;;;;3.50;2.70;;;;;;;3.05;100.00;99430.91;5084420;28;20295;-81
2024/02/03 02:04:28;;;;;;;4.60;2.70;;;;;;;3.11;100.00;99436.03;5084921;28;20256;-81
2024/02/03 02:06:54;;;;;;;4.10;2.70;;;;;;;3.22;100.00;99426.25;5084499;28;20240;-80
2024/02/03 02:09:21;;;;;;;6.07;3.30;;;;;;;3.20;100.00;99433.25;5085921;28;20267;-81
2024/02/03 02:11:49;;;;;;;4.17;3.13;;;;;;;3.21;100.00;99427.13;5083568;28;20228;-80
2024/02/03 02:14:16;;;;;;;3.07;2.07;;;;;;;3.33;100.00;99434.72;5081490;28;20214;-81
2024/02/03 02:16:43;;;;;;;3.87;2.93;;;;;;;3.35;100.00;99417.25;5081009;28;20238;-81
2024/02/03 02:19:10;;;;;;;3.80;2.40;;;;;;;3.46;100.00;99423.13;5081053;28;20680;-81
2024/02/03 02:21:38;;;;;;;2.63;2.33;;;;;;;3.65;100.00;99424.47;5079822;28;20230;-81
2024/02/03 02:24:05;;;;;;;2.63;2.07;;;;;;;3.66;100.00;99413.09;5080970;28;20716;-81
2024/02/03 02:26:32;;;;;;;3.90;2.57;;;;;;;3.56;100.00;99415.97;5080416;28;20205;-81
2024/02/03 02:28:59;;;;;;;4.07;2.40;;;;;;;3.49;100.00;99402.16;5079505;28;20229;-82
2024/02/03 02:31:25;;;;;;;3.77;2.83;;;;;;;3.42;100.00;99403.16;5079582;28;20228;-81
2024/02/03 02:33:52;;;;;;;3.33;2.43;;;;;;;3.33;100.00;99400.75;5080341;28;20675;-81
2024/02/03 02:36:19;;;;;;;3.73;2.60;;;;;;;3.22;100.00;99404.47;5077538;28;20316;-81
2024/02/03 02:38:47;;;;;;;3.80;2.27;;;;;;;3.20;100.00;99407.13;5079698;28;20313;-81
2024/02/03 02:41:13;;;;;;;3.43;2.57;;;;;;;3.17;100.00;99408.94;5079361;28;20214;-80
2024/02/03 02:43:40;;;;;;;3.03;2.30;;;;;;;3.09;100.00;99403.00;5079751;28;20313;-81
2024/02/03 02:46:07;;;;;;;3.80;2.87;;;;;;;3.07;100.00;99405.63;5079254;28;20241;-81
2024/02/03 02:48:34;;;;;;;3.63;2.67;;;;;;;3.09;100.00;99403.00;5078953;28;20204;-81
2024/02/03 02:51:01;;;;;;;3.87;2.60;;;;;;;3.03;100.00;99396.16;5079274;28;20237;-81
2024/02/03 02:53:27;;;;;;;4.57;2.80;;;;;;;2.93;100.00;99402.41;5078563;28;20306;-81
2024/02/03 02:55:55;;;;;;;5.67;2.67;;;;;;;2.92;100.00;99411.16;5078153;28;20311;-80
2024/02/03 02:58:22;;;;;;;4.07;2.70;;;;;;;2.83;100.00;99405.25;5078911;28;20293;-81
2024/02/03 03:00:48;;;;;;;3.53;2.70;;;;;;;2.74;100.00;99406.25;5080360;28;20220;-81
2024/02/03 03:03:15;;;;;;;4.37;2.80;;;;;;;2.73;100.00;99404.53;5082082;28;20238;-81
2024/02/03 03:05:42;;;;;;;3.67;2.57;;;;;;;2.72;100.00;99417.63;5083162;28;20206;-81
2024/02/03 03:08:08;;;;;;;2.73;2.30;;;;;;;2.57;100.00;99418.75;5082065;28;20205;-81
2024/02/03 03:10:35;;;;;;;3.97;2.97;;;;;;;2.47;100.00;99411.97;5083411;28;20206;-80
2024/02/03 03:13:03;;;;;;;2.70;2.50;;;;;;;2.38;100.00;99411.28;5083856;28;20257;-81
2024/02/03 03:15:29;;;;;;;4.10;2.80;;;;;;;2.34;100.00;99415.66;5082983;28;20319;-81
2024/02/03 03:17:56;;;;;;;4.90;3.23;;;;;;;2.27;100.00;99424.47;5082722;28;20594;-81
2024/02/03 03:20:22;;;;;;;4.57;3.10;;;;;;;2.31;100.00;99420.94;5082697;28;20321;-81
2024/02/03 03:22:49;;;;;;;4.10;2.83;;;;;;;2.32;100.00;99414.81;5082928;28;20734;-81
2024/02/03 03:25:15;;;;;;;4.50;2.60;;;;;;;2.40;100.00;99425.16;5081943;28;20211;-81
2024/02/03 03:27:42;;;;;;;3.97;2.70;;;;;;;2.41;100.00;99419.91;5083683;28;20215;-82
2024/02/03 03:30:11;;;;;;;3.27;2.60;;;;;;;2.44;100.00;99422.44;5084031;28;20228;-80
2024/02/03 03:32:37;;;;;;;4.10;2.63;;;;;;;2.43;100.00;99420.72;5084107;28;20254;-81
2024/02/03 03:35:04;;;;;;;3.00;2.60;;;;;;;2.38;100.00;99419.94;5084590;28;20216;-81
2024/02/03 03:37:32;;;;;;;4.10;2.97;;;;;;;2.39;100.00;99413.84;5085293;28;20209;-81
2024/02/03 03:39:59;;;;;;;4.13;2.93;;;;;;;2.43;100.00;99412.91;5085082;28;20227;-81
2024/02/03 03:42:28;;;;;;;3.37;2.50;;;;;;;2.39;100.00;99413.84;5084850;28;20709;-82
2024/02/03 03:44:55;;;;;;;3.67;2.50;;;;;;;2.39;100.00;99403.41;5085205;28;20690;-80
2024/02/03 03:47:22;;;;;;;3.80;3.07;;;;;;;2.42;100.00;99403.34;5084331;28;20214;-82
2024/02/03 03:49:49;;;;;;;4.60;2.87;;;;;;;2.41;100.00;99406.88;5085363;28;20284;-80
2024/02/03 03:52:15;;;;;;;3.37;2.60;;;;;;;2.42;100.00;99398.16;5085602;28;20230;-81
2024/02/03 03:54:42;;;;;;;3.00;2.47;;;;;;;2.40;100.00;99405.13;5084992;28;20702;-80
2024/02/03 03:57:08;;;;;;;3.87;2.43;;;;;;;2.44;100.00;99401.56;5083801;28;20252;-80
2024/02/03 03:59:35;;;;;;;3.70;2.60;;;;;;;2.44;100.00;99409.41;5084833;28;20204;-80
2024/02/03 04:02:01;;;;;;;3.63;2.83;;;;;;;2.43;100.00;99420.72;5087871;28;20250;-80
2024/02/03 04:04:29;;;;;;;2.93;2.07;;;;;;;2.34;100.00;99415.66;5086248;28;20219;-81
2024/02/03 04:06:56;;;;;;;3.47;2.40;;;;;;;2.27;100.00;99410.59;5086994;28;20279;-81
2024/02/03 04:09:23;;;;;;;6.17;2.90;;;;;;;2.19;100.00;99413.31;5087537;28;20207;-83
2024/02/03 04:11:50;;;;;;;3.67;2.60;;;;;;;2.12;100.00;99406.47;5085391;28;20688;-81
2024/02/03 04:14:16;;;;;;;5.23;3.10;;;;;;;2.10;100.00;99405.63;5085649;28;20239;-80
2024/02/03 04:16:43;;;;;;;3.27;2.60;;;;;;;2.05;100.00;99412.66;5085052;28;20315;-80
2024/02/03 04:19:09;;;;;;;5.10;2.80;;;;;;;2.02;100.00;99417.06;5085520;28;20206;-80
2024/02/03 04:21:38;;;;;;;3.17;2.77;;;;;;;1.97;100.00;99422.31;5084226;28;20315;-80
2024/02/03 04:24:04;;;;;;;3.70;2.60;;;;;;;1.94;100.00;99419.78;5083870;28;20269;-83
2024/02/03 04:26:31;;;;;;;4.43;2.80;;;;;;;1.94;100.00;99425.00;5083989;28;20215;-80
2024/02/03 04:28:58;;;;;;;3.60;2.97;;;;;;;2.05;100.00;99422.22;5083438;28;20220;-80
2024/02/03 04:31:24;;;;;;;4.47;3.07;;;;;;;2.12;100.00;99418.63;5083424;28;20230;-80
2024/02/03 04:33:51;;;;;;;3.97;2.63;;;;;;;2.06;100.00;99419.59;5083169;28;20213;-80
2024/02/03 04:36:18;;;;;;;4.00;2.87;;;;;;;2.06;100.00;99413.50;5082835;28;20233;-80
2024/02/03 04:38:46;;;;;;;4.77;2.60;;;;;;;2.00;100.00;99427.50;5082217;28;20666;-81
2024/02/03 04:41:21;;;;;;;3.60;2.87;;;;;;;1.97;100.00;99430.16;5082434;28;20331;-81
2024/02/03 04:43:48;;;;;;;4.03;2.93;;;;;;;1.93;100.00;99432.81;5082309;28;20196;-80
2024/02/03 04:46:14;;;;;;;3.87;2.87;;;;;;;1.95;100.00;99433.66;5082205;28;20200;-81
2024/02/03 04:48:42;;;;;;;3.53;2.90;;;;;;;1.98;100.00;99437.13;5081363;28;20205;-81
2024/02/03 04:51:08;;;;;;;4.97;2.90;;;;;;;1.95;100.00;99437.13;5081574;28;20218;-82
2024/02/03 04:53:35;;;;;;;3.10;2.67;;;;;;;1.97;100.00;99440.56;5081599;28;20206;-82
2024/02/03 04:56:03;;;;;;;3.87;2.57;;;;;;;1.96;100.00;99444.06;5081620;28;20227;-82
2024/02/03 04:58:30;;;;;;;3.87;2.73;;;;;;;1.89;100.00;99432.00;5081423;28;20209;-81
2024/02/03 05:00:57;;;;;;;5.17;2.70;;;;;;;1.93;100.00;99427.63;5082270;28;20217;-80
2024/02/03 05:03:23;;;;;;;2.53;2.20;;;;;;;2.01;100.00;99430.97;5082680;28;20470;-80
2024/02/03 05:05:50;;;;;;;3.67;2.40;;;;;;;2.00;100.00;99435.34;5082608;28;20214;-80
2024/02/03 05:08:16;;;;;;;2.20;1.90;;;;;;;1.97;100.00;99437.13;5081815;28;20208;-80
2024/02/03 05:10:43;;;;;;;2.77;2.30;;;;;;;1.96;100.00;99433.63;5081942;28;20624;-80
2024/02/03 05:13:11;;;;;;;2.90;2.50;;;;;;;1.96;100.00;99438.00;5081767;28;20233;-82
2024/02/03 05:15:37;;;;;;;3.63;2.30;;;;;;;1.97;100.00;99445.78;5082157;28;20583;-81
2024/02/03 05:18:04;;;;;;;4.30;2.67;;;;;;;1.99;100.00;99438.84;5082315;28;20210;-80
2024/02/03 05:20:30;;;;;;;3.63;2.83;;;;;;;2.09;100.00;99431.72;5082290;28;20604;-80
2024/02/03 05:22:57;;;;;;;6.87;4.67;;;;;;;2.32;100.00;99437.47;5082124;28;20236;-80
2024/02/03 05:25:23;;;;;;;7.77;5.33;;;;;;;2.64;100.00;99441.22;5081854;28;20701;-80
2024/02/03 05:27:50;;;;;;;12.90;7.03;;;;;;;2.80;100.00;99432.25;5081685;28;20702;-80
2024/02/03 05:30:18;;;;;;;12.03;6.70;;;;;;;3.06;100.00;99442.25;5082698;28;20212;-80
2024/02/03 05:32:44;;;;;;;13.67;7.60;;;;;;;3.25;100.00;99441.84;5082621;28;20224;-80
2024/02/03 05:35:11;;;;;;;12.93;7.80;;;;;;;3.33;100.00;99439.97;5083155;28;20208;-80
2024/02/03 05:37:37;;;;;;;13.23;8.07;;;;;;;3.52;100.00;99436.06;5083147;28;20238;-80
2024/02/03 05:40:04;;;;;;;13.67;8.60;;;;;;;3.75;100.00;99435.59;5083533;28;20565;-80
2024/02/03 05:42:31;;;;;;;16.57;9.00;;;;;;;3.92;100.00;99430.84;5084339;28;20334;-80
2024/02/03 05:44:58;;;;;;;15.53;8.70;;;;;;;4.12;100.00;99432.13;5083583;28;20588;-80
2024/02/03 05:47:26;;;;;;;12.23;8.20;;;;;;;4.19;100.00;99436.31;5083800;28;20206;-82
2024/02/03 05:49:52;;;;;;;10.73;7.40;;;;;;;4.28;100.00;99427.41;5085040;28;20286;-82
2024/02/03 05:52:19;;;;;;;14.90;8.17;;;;;;;4.46;100.00;99425.19;5083782;28;20235;-80
2024/02/03 05:54:45;;;;;;;15.23;9.17;;;;;;;4.66;100.00;99425.56;5084308;28;20253;-80
2024/02/03 05:57:12;;;;;;;14.67;8.10;;;;;;;4.85;100.00;99428.56;5084131;28;20234;-80
2024/02/03 05:59:39;;;;;;;13.77;8.63;;;;;;;4.97;100.00;99423.88;5083735;28;20252;-81
2024/02/03 06:02:05;;;;;;;13.77;7.67;;;;;;;5.09;100.00;99428.78;5083961;28;20235;-80
2024/02/03 06:04:33;;;;;;;11.97;8.07;;;;;;;5.17;100.00;99426.81;5085430;28;20206;-81
2024/02/03 06:06:59;;;;;;;13.30;8.30;;;;;;;5.26;100.00;99434.41;5083361;28;20207;-81
2024/02/03 06:09:26;;;;;;;12.60;7.40;;;;;;;5.32;100.00;99426.38;5082631;28;20302;-82
2024/02/03 06:11:53;;;;;;;11.20;7.30;;;;;;;5.37;100.00;99424.47;5080848;28;20284;-81
2024/02/03 06:14:19;;;;;;;12.53;8.13;;;;;;;5.45;100.00;99432.97;5080834;28;20668;-80
2024/02/03 06:16:46;;;;;;;12.23;7.47;;;;;;;5.46;100.00;99439.97;5080824;28;20732;-80
2024/02/03 06:19:15;;;;;;;12.43;7.90;;;;;;;5.48;100.00;99429.41;5081320;28;20210;-80
2024/02/03 06:21:43;;;;;;;11.83;7.20;;;;;;;5.49;100.00;99434.63;5081401;28;20243;-80
2024/02/03 06:24:10;;;;;;;11.90;7.50;;;;;;;5.52;100.00;99444.19;5083616;28;20698;-81
2024/02/03 06:26:37;;;;;;;11.87;7.67;;;;;;;5.53;100.00;99441.53;5085405;28;20213;-80
2024/02/03 06:29:05;;;;;;;12.47;7.13;;;;;;;5.53;100.00;99441.53;5085623;28;20211;-80
2024/02/03 06:31:32;;;;;;;10.30;7.27;;;;;;;5.55;100.00;99450.19;5083940;28;20640;-81
2024/02/03 06:33:58;;;;;;;11.07;7.30;;;;;;;5.56;100.00;99453.69;5084991;28;20215;-80
2024/02/03 06:36:25;;;;;;;10.90;7.60;;;;;;;5.56;100.00;99446.66;5086926;28;20230;-81
2024/02/03 06:38:52;;;;;;;12.63;7.57;;;;;;;5.55;100.00;99442.31;5087332;28;20218;-81
2024/02/03 06:41:21;;;;;;;11.20;7.57;;;;;;;5.55;100.00;99444.94;5088031;28;20223;-81
2024/02/03 06:43:47;;;;;;;11.23;7.40;;;;;;;5.59;100.00;99445.72;5087930;28;20213;-81
2024/02/03 06:46:14;;;;;;;13.10;8.20;;;;;;;5.57;100.00;99439.66;5089381;28;20207;-81
2024/02/03 06:48:40;;;;;;;13.73;8.10;;;;;;;5.55;100.00;99450.19;5089258;28;20208;-81
2024/02/03 06:51:07;;;;;;;12.43;7.87;;;;;;;5.59;100.00;99451.84;5087923;28;20211;-81
2024/02/03 06:53:33;;;;;;;11.93;7.67;;;;;;;5.59;100.00;99450.97;5088270;28;20211;-81
2024/02/03 06:56:02;;;;;;;12.17;8.13;;;;;;;5.60;100.00;99448.31;5086973;28;20203;-81
2024/02/03 06:58:29;;;;;;;13.27;8.07;;;;;;;5.61;100.00;99454.41;5087528;28;20290;-82
2024/02/03 07:00:55;;;;;;;13.10;8.00;;;;;;;5.63;100.00;99456.06;5087938;28;20211;-81
2024/02/03 07:03:22;;;;;;;14.60;8.30;;;;;;;5.63;100.00;99450.81;5087359;28;20221;-81
2024/02/03 07:05:48;;;;;;;13.03;8.03;;;;;;;5.66;100.00;99453.38;5085515;28;20211;-81
2024/02/03 07:08:15;;;;;;;14.23;8.00;;;;;;;5.67;100.00;99449.84;5084669;28;20202;-81
2024/02/03 07:10:41;;;;;;;13.47;8.00;;;;;;;5.70;100.00;99455.00;5083816;28;20223;-81
2024/02/03 07:13:09;;;;;;;10.93;6.83;;;;;;;5.75;100.00;99458.34;5078216;28;20231;-78
2024/02/03 07:15:35;;;;;;;12.30;7.57;;;;;;;5.76;100.00;99470.56;5078063;28;20211;-78
2024/02/03 07:18:02;;;;;;;10.73;7.00;;;;;;;5.77;100.00;99466.16;5083329;28;20238;-80
2024/02/03 07:20:28;;;;;;;12.00;6.87;;;;;;;5.81;100.00;99458.19;5083933;28;20218;-80
2024/02/03 07:22:55;;;;;;;10.67;7.00;;;;;;;5.84;100.00;99466.00;5082814;28;20241;-80
2024/02/03 07:25:21;;;;;;;11.70;6.93;;;;;;;5.87;100.00;99452.75;5081546;28;20214;-80
2024/02/03 07:27:48;;;;;;;9.47;6.53;;;;;;;5.90;100.00;99457.94;5082903;28;20203;-81
2024/02/03 07:30:16;;;;;;;10.37;6.83;;;;;;;5.92;100.00;99450.88;5083791;28;20218;-80
2024/02/03 07:32:43;;;;;;;11.55;7.45;;;;;;;5.94;100.00;99459.59;5082478;28;20433;-79
2024/02/03 07:35:11;;;;;;;10.53;6.60;;;;;;;5.98;100.00;99460.34;5079317;28;20211;-79
2024/02/03 07:37:38;;;;;;;9.47;6.20;;;;;;;6.02;100.00;99447.06;5076708;28;20231;-79
2024/02/03 07:40:06;;;;;;;12.13;7.30;;;;;;;6.08;100.00;99446.03;5077870;28;20627;-79
2024/02/03 07:42:33;;;;;;;12.97;6.87;;;;;;;6.09;100.00;99439.84;5077836;28;20737;-78
2024/02/03 07:44:59;;;;;;;9.87;6.37;;;;;;;6.14;100.00;99445.81;5077334;28;20208;-78
2024/02/03 07:47:27;;;;;;;10.37;6.17;;;;;;;6.18;100.00;99445.69;5076442;28;20210;-78
2024/02/03 07:49:53;;;;;;;9.37;5.87;;;;;;;6.19;100.00;99460.56;5079753;28;20279;-79
2024/02/03 07:52:23;;;;;;;11.30;6.10;;;;;;;6.24;100.00;99463.88;5080601;28;20254;-80
2024/02/03 07:54:50;;;;;;;9.33;6.03;;;;;;;6.23;100.00;99462.16;5080364;28;20219;-80
2024/02/03 07:57:16;;;;;;;9.13;6.43;;;;;;;6.27;100.00;99458.53;5079475;28;20229;-79
2024/02/03 07:59:43;;;;;;;11.83;6.23;;;;;;;6.32;100.00;99464.50;5078320;28;20584;-79
2024/02/03 08:02:09;;;;;;;11.33;6.07;;;;;;;6.33;100.00;99463.59;5080150;28;20233;-78
2024/02/03 08:04:37;;;;;;;7.93;5.67;;;;;;;6.34;100.00;99460.06;5080251;28;20219;-79
2024/02/03 08:07:04;;;;;;;10.17;6.07;;;;;;;6.37;100.00;99459.97;5083824;28;20207;-80
2024/02/03 08:09:30;;;;;;;9.67;6.60;;;;;;;6.40;100.00;99454.63;5086934;28;20214;-81
2024/02/03 08:11:59;;;;;;;11.83;6.63;;;;;;;6.38;100.00;99455.56;5083641;28;20227;-86
2024/02/03 08:14:25;;;;;;;8.67;5.90;;;;;;;6.44;100.00;99464.13;5084736;28;20199;-81
2024/02/03 08:16:52;;;;;;;8.67;5.93;;;;;;;6.47;100.00;99461.38;5083334;28;20605;-81
2024/02/03 08:19:19;;;;;;;9.97;6.27;;;;;;;6.46;100.00;99470.19;5083122;28;20212;-82
2024/02/03 08:21:46;;;;;;;9.03;5.70;;;;;;;6.47;100.00;99471.06;5083621;28;20230;-80
2024/02/03 08:24:13;;;;;;;8.83;5.70;;;;;;;6.48;100.00;99472.75;5080535;28;20288;-80
2024/02/03 08:26:39;;;;;;;8.47;5.80;;;;;;;6.45;100.00;99467.59;5080076;28;20230;-81
2024/02/03 08:29:13;;;;;;;8.97;5.70;;;;;;;6.45;100.00;99468.47;5078940;28;20229;-84
2024/02/03 08:31:40;;;;;;;9.30;5.53;;;;;;;6.42;100.00;99473.81;5079595;28;20235;-81
2024/02/03 08:34:06;;;;;;;8.23;5.60;;;;;;;6.46;100.00;99475.44;5078664;28;20221;-80
2024/02/03 08:36:33;;;;;;;7.90;5.30;;;;;;;6.43;100.00;99483.44;5078608;28;20208;-81
2024/02/03 08:39:01;;;;;;;8.30;5.27;;;;;;;6.46;100.00;99485.94;5078135;28;20705;-80
2024/02/03 08:41:27;;;;;;;6.60;4.33;;;;;;;6.47;100.00;99477.16;5075289;28;20250;-80
2024/02/03 08:43:54;;;;;;;4.77;3.67;;;;;;;6.46;100.00;99477.19;5075186;28;20206;-80
2024/02/03 08:46:21;;;;;;;5.13;3.43;;;;;;;6.43;100.00;99480.78;5076501;28;20215;-79
2024/02/03 08:48:47;;;;;;;6.13;4.03;;;;;;;6.42;100.00;99468.53;5072152;28;20213;-79
2024/02/03 08:51:17;;;;;;;5.67;3.50;;;;;;;6.43;100.00;99472.03;5074854;28;20212;-79
2024/02/03 08:53:43;;;;;;;5.17;3.10;;;;;;;6.42;100.00;99479.06;5076762;28;20214;-80
2024/02/03 08:56:11;;;;;;;4.50;3.13;;;;;;;6.41;100.00;99479.97;5078379;28;20206;-79
2024/02/03 08:58:37;;;;;;;4.10;2.90;;;;;;;6.56;100.00;99476.00;5074927;28;20231;-82
2024/02/03 09:01:04;;;;;;;4.57;2.83;;;;;;;6.55;100.00;99475.16;5077646;28;20204;-84
2024/02/03 09:03:31;;;;;;;4.87;3.17;;;;;;;6.54;100.00;99483.06;5078629;28;20203;-83
2024/02/03 09:05:57;;;;;;;6.30;3.80;;;;;;;6.53;100.00;99487.47;5077431;28;20580;-80
2024/02/03 09:08:24;;;;;;;6.10;2.93;;;;;;;6.55;100.00;99495.31;5076121;28;20210;-78
2024/02/03 09:10:50;;;;;;;4.50;3.67;;;;;;;6.55;100.00;99490.91;5077123;28;20212;-81
2024/02/03 09:13:19;;;;;;;4.67;3.40;;;;;;;6.56;100.00;99482.13;5077704;28;20227;-81
2024/02/03 09:15:45;;;;;;;5.57;3.47;;;;;;;6.59;100.00;99491.69;5076893;28;20211;-78
2024/02/03 09:18:12;;;;;;;6.03;3.97;;;;;;;6.63;100.00;99482.78;5075693;28;20235;-79
2024/02/03 09:20:40;;;;;;;5.90;3.30;;;;;;;6.57;100.00;99478.59;5075966;28;20207;-81
2024/02/03 09:23:07;;;;;;;6.43;3.73;;;;;;;6.51;100.00;99477.91;5076471;28;20621;-80
2024/02/03 09:25:33;;;;;;;4.50;3.20;;;;;;;6.54;100.00;99476.03;5075497;28;20203;-80
2024/02/03 09:28:00;;;;;;;5.63;3.90;;;;;;;6.54;100.00;99478.66;5074497;28;20574;-80
2024/02/03 09:30:28;;;;;;;5.07;3.50;;;;;;;6.56;100.00;99479.50;5076512;28;20223;-83
2024/02/03 09:32:54;;;;;;;5.10;3.10;;;;;;;6.61;100.00;99477.59;5075357;28;20342;-84
2024/02/03 09:35:21;;;;;;;4.50;3.23;;;;;;;6.63;100.00;99477.50;5075577;28;20591;-81
2024/02/03 09:37:47;;;;;;;4.90;2.73;;;;;;;6.72;100.00;99478.06;5075872;28;20227;-81
2024/02/03 09:40:19;;;;;;;6.20;3.47;;;;;;;6.78;100.00;99487.53;5076397;28;20561;-77
2024/02/03 09:42:46;;;;;;;4.93;3.70;;;;;;;6.75;100.00;99482.38;5075637;28;20246;-81
2024/02/03 09:45:13;;;;;;;4.70;2.87;;;;;;;6.76;100.00;99487.59;5074834;28;20575;-79
2024/02/03 09:47:40;;;;;;;5.50;3.27;;;;;;;6.72;100.00;99493.00;5075072;28;20530;-80
2024/02/03 09:50:08;;;;;;;6.03;3.10;;;;;;;6.73;100.00;99490.28;5075736;28;20219;-79
2024/02/03 09:52:37;;;;;;;4.40;3.20;;;;;;;6.75;100.00;99488.50;5075315;28;20252;-84
2024/02/03 09:55:05;;;;;;;5.10;3.13;;;;;;;6.79;100.00;99482.22;5074355;28;20200;-84
2024/02/03 09:57:32;;;;;;;4.63;3.13;;;;;;;6.84;100.00;99482.94;5075950;28;20230;-82
2024/02/03 09:59:59;;;;;;;4.27;3.30;;;;;;;6.90;100.00;99482.72;5075524;28;20241;-81
2024/02/03 10:02:27;;;;;;;3.77;2.97;;;;;;;6.93;100.00;99482.66;5075798;28;20258;-81
2024/02/03 10:04:56;;;;;;;4.77;2.97;;;;;;;6.97;100.00;99478.97;5077894;28;20208;-81
2024/02/03 10:07:23;;;;;;;4.00;3.17;;;;;;;7.05;100.00;99471.72;5080021;28;20367;-80
2024/02/03 10:09:50;;;;;;;4.77;3.00;;;;;;;7.14;100.00;99468.75;5077003;28;20743;-82
2024/02/03 10:12:19;;;;;;;3.60;2.70;;;;;;;7.18;100.00;99475.63;5077988;28;20651;-80
2024/02/03 10:14:46;;;;;;;4.60;3.23;;;;;;;7.22;100.00;99469.38;5078944;28;20583;-82
2024/02/03 10:17:20;;;;;;;4.23;2.37;;;;;;;7.16;100.00;99472.22;5079516;28;20207;-81
2024/02/03 10:19:46;;;;;;;3.93;2.90;;;;;;;7.12;100.00;99459.19;5080569;28;20215;-83
2024/02/03 10:22:15;;;;;;;4.33;2.50;;;;;;;7.05;100.00;99463.81;5080372;28;20227;-80
2024/02/03 10:24:41;;;;;;;5.13;3.47;;;;;;;7.10;100.00;99454.03;5080254;28;20212;-82
2024/02/03 10:27:08;;;;;;;4.13;2.97;;;;;;;7.11;100.00;99458.38;5079173;28;20214;-81
2024/02/03 10:29:35;;;;;;;3.63;3.13;;;;;;;7.19;100.00;99458.94;5079168;28;20223;-82
2024/02/03 10:32:02;;;;;;;3.77;3.00;;;;;;;7.32;100.00;99457.59;5080800;28;20223;-81
2024/02/03 10:34:31;;;;;;;4.90;3.13;;;;;;;7.54;100.00;99458.56;5079968;28;20234;-82
2024/02/03 10:36:57;;;;;;;3.87;3.03;;;;;;;7.71;100.00;99449.13;5080312;28;20218;-83
2024/02/03 10:39:25;;;;;;;4.77;3.20;;;;;;;7.97;100.00;99440.25;5078831;28;20606;-81
2024/02/03 10:41:53;;;;;;;4.50;3.13;;;;;;;8.11;100.00;99437.94;5080873;28;20238;-80
2024/02/03 10:44:25;;;;;;;4.93;3.50;;;;;;;8.21;100.00;99434.94;5081516;28;20215;-80
2024/02/03 10:46:53;;;;;;;4.53;3.50;;;;;;;8.30;100.00;99444.25;5084763;28;20213;-80
2024/02/03 10:49:28;;;;;;;2.83;2.40;;;;;;;8.38;100.00;99432.50;5083877;28;20426;-81
2024/02/03 10:51:56;;;;;;;3.10;2.40;;;;;;;8.46;100.00;99430.41;5080894;28;20236;-82
2024/02/03 10:54:28;;;;;;;3.53;2.60;;;;;;;8.55;100.00;99423.91;5079378;28;20208;-80
2024/02/03 10:56:55;;;;;;;4.10;2.37;;;;;;;8.66;100.00;99406.75;5079143;28;20213;-81
2024/02/03 10:59:22;;;;;;;3.37;2.40;;;;;;;8.85;100.00;99407.69;5079921;28;20229;-79
2024/02/03 11:01:48;;;;;;;3.20;2.63;;;;;;;8.94;100.00;99406.44;5080364;28;20229;-80
2024/02/03 11:04:15;;;;;;;3.33;2.47;;;;;;;8.98;100.00;99402.75;5079307;28;20222;-80
2024/02/03 11:06:45;;;;;;;3.10;2.50;;;;;;;8.94;100.00;99412.56;5081168;28;20237;-81
2024/02/03 11:09:13;;;;;;;2.80;2.03;;;;;;;8.90;100.00;99404.84;5081820;28;20296;-80
2024/02/03 11:11:42;;;;;;;3.43;2.27;;;;;;;8.96;100.00;99413.38;5079702;28;20251;-80
2024/02/03 11:14:13;;;;;;;2.77;1.90;;;;;;;8.91;100.00;99401.28;5078521;28;20215;-81
2024/02/03 11:16:40;;;;;;;2.23;1.97;;;;;;;8.93;100.00;99399.47;5078758;28;20274;-81
2024/02/03 11:19:10;;;;;;;3.00;2.20;;;;;;;8.91;100.00;99402.16;5080176;28;20283;-81
2024/02/03 11:21:41;;;;;;;2.37;1.90;;;;;;;8.97;100.00;99399.25;5076891;28;20288;-81
2024/02/03 11:24:08;;;;;;;1.63;1.50;;;;;;;8.88;100.00;99391.72;5079694;28;20222;-81
2024/02/03 11:26:35;;;;;;;1.13;1.07;;;;;;;8.93;100.00;99376.56;5081098;28;20567;-82
2024/02/03 11:29:05;;;;;;;1.40;1.30;;;;;;;8.94;100.00;99380.09;5080794;28;20324;-80
2024/02/03 11:31:32;;;;;;;1.30;1.10;;;;;;;8.95;100.00;99382.66;5080302;28;20238;-81